Time;durP1;ratioP1;P1;durP2;ratioP2;P2;SDS_P1;SDS_P2;PMS_P1;PMS_P2;Temp;Humidity;BMP_temperature;BMP_pressure;BME280_temperature;BME280_humidity;BME280_pressure;Samples;Min_cycle;Max_cycle;Signal;HPM_P1;HPM_P2
2023/09/17 00:00:04;;;;;;;10.27;9.27;;;;;;;20.15;100.00;101521.84;5072499;28;20028;-75
2023/09/17 00:02:30;;;;;;;12.90;9.55;;;;;;;19.87;100.00;101482.59;5053450;28;20028;-74
2023/09/17 00:04:55;;;;;;;10.98;9.88;;;;;;;20.00;100.00;101556.06;5053928;28;20499;-74
2023/09/17 00:07:21;;;;;;;11.93;10.00;;;;;;;19.93;100.00;101559.78;5054009;28;20060;-74
2023/09/17 00:09:46;;;;;;;14.23;10.75;;;;;;;19.58;100.00;101511.34;5071748;28;20460;-73
2023/09/17 00:12:12;;;;;;;11.52;10.43;;;;;;;19.72;100.00;101558.09;5054600;28;20025;-74
2023/09/17 00:14:37;;;;;;;12.25;10.65;;;;;;;19.59;100.00;101502.72;5054360;28;20449;-74
2023/09/17 00:17:04;;;;;;;13.73;11.30;;;;;;;19.93;100.00;101570.13;5054156;28;20036;-75
2023/09/17 00:19:32;;;;;;;12.73;11.38;;;;;;;19.79;100.00;101578.44;5054391;28;20055;-75
2023/09/17 00:21:57;;;;;;;12.38;10.65;;;;;;;19.85;100.00;101570.44;5072277;28;20027;-75
2023/09/17 00:24:23;;;;;;;12.75;10.30;;;;;;;19.76;100.00;101583.72;5072159;28;20020;-76
2023/09/17 00:26:48;;;;;;;12.77;10.52;;;;;;;19.81;100.00;101596.44;5053935;28;20075;-75
2023/09/17 00:29:13;;;;;;;11.90;9.80;;;;;;;19.82;100.00;101604.13;5072010;28;20025;-75
2023/09/17 00:31:39;;;;;;;11.20;10.02;;;;;;;19.88;100.00;101592.72;5053717;28;20044;-75
2023/09/17 00:34:06;;;;;;;11.85;10.50;;;;;;;19.23;100.00;101489.50;5053854;28;20048;-75
2023/09/17 00:36:31;;;;;;;11.20;10.10;;;;;;;19.52;100.00;101553.72;5071271;28;20423;-75
2023/09/17 00:38:57;;;;;;;12.35;10.48;;;;;;;19.96;100.00;101615.63;5071972;28;20031;-74
2023/09/17 00:41:22;;;;;;;12.98;10.40;;;;;;;19.57;100.00;101576.78;5070158;28;20073;-75
2023/09/17 00:43:48;;;;;;;11.93;10.43;;;;;;;19.99;100.00;101621.50;5071581;28;20036;-74
2023/09/17 00:46:14;;;;;;;11.43;9.43;;;;;;;20.03;100.00;101627.38;5053327;28;20044;-74
2023/09/17 00:48:41;;;;;;;11.02;9.52;;;;;;;19.68;100.00;101585.78;5053761;28;20115;-75
2023/09/17 00:51:07;;;;;;;10.40;9.30;;;;;;;19.81;100.00;101561.13;5053891;28;20526;-74
2023/09/17 00:53:32;;;;;;;10.65;9.25;;;;;;;20.26;100.00;101660.94;5071594;28;20029;-75
2023/09/17 00:55:58;;;;;;;11.35;10.15;;;;;;;20.05;100.00;101629.03;5071474;28;20028;-74
2023/09/17 00:58:28;;;;;;;12.52;9.57;;;;;;;19.84;100.00;101606.66;5070852;28;20032;-74
2023/09/17 01:00:54;;;;;;;12.98;9.23;;;;;;;20.12;100.00;101674.38;5071346;28;20040;-74
2023/09/17 01:03:20;;;;;;;12.95;9.02;;;;;;;19.87;100.00;101671.91;5052146;28;20106;-73
2023/09/17 01:05:47;;;;;;;10.57;9.40;;;;;;;19.81;100.00;101689.38;5070294;28;20032;-73
2023/09/17 01:08:13;;;;;;;13.77;9.52;;;;;;;19.59;100.00;101647.25;5071348;28;20119;-75
2023/09/17 01:10:41;;;;;;;12.63;9.48;;;;;;;19.97;100.00;101705.97;5070841;28;20124;-74
2023/09/17 01:13:08;;;;;;;11.02;9.70;;;;;;;19.69;100.00;101651.97;5070790;28;20046;-74
2023/09/17 01:15:34;;;;;;;13.07;9.32;;;;;;;20.08;100.00;101719.31;5068985;28;20039;-74
2023/09/17 01:18:01;;;;;;;10.85;9.15;;;;;;;19.81;100.00;101677.31;5086358;28;20032;-74
2023/09/17 01:20:31;;;;;;;10.50;9.40;;;;;;;20.21;100.00;101724.84;5070432;28;20464;-74
2023/09/17 01:23:03;;;;;;;10.82;9.63;;;;;;;20.01;100.00;101729.91;5070189;28;20468;-74
2023/09/17 01:26:06;;;;;;;12.07;9.63;;;;;;;20.05;100.00;101724.56;5069738;28;20040;-74
2023/09/17 01:28:32;;;;;;;10.90;9.02;;;;;;;19.96;100.00;101714.63;5060668;28;20426;-73
2023/09/17 01:30:58;;;;;;;12.10;9.27;;;;;;;20.00;100.00;101731.69;5069636;28;20119;-73
2023/09/17 01:33:24;;;;;;;10.70;9.05;;;;;;;19.65;100.00;101667.63;5086413;28;20048;-73
2023/09/17 01:35:57;;;;;;;10.93;8.85;;;;;;;20.00;100.00;101729.09;5069794;28;20473;-74
2023/09/17 01:38:32;;;;;;;9.77;8.82;;;;;;;20.05;100.00;101734.91;5070804;28;20116;-73
2023/09/17 01:41:01;;;;;;;9.82;8.48;;;;;;;20.06;100.00;101749.53;5054777;28;20036;-73
2023/09/17 01:43:27;;;;;;;9.77;8.60;;;;;;;20.22;100.00;101737.72;5082159;28;20062;-72
2023/09/17 01:45:54;;;;;;;11.10;9.00;;;;;;;20.17;100.00;101754.25;5074610;28;20028;-72
2023/09/17 01:48:20;;;;;;;10.73;8.57;;;;;;;20.00;100.00;101754.91;5071156;28;20082;-74
2023/09/17 01:50:47;;;;;;;12.77;8.90;;;;;;;19.83;100.00;101771.03;5070466;28;20036;-74
2023/09/17 01:53:13;;;;;;;9.95;8.40;;;;;;;20.16;100.00;101778.41;5070906;28;20086;-74
2023/09/17 01:55:41;;;;;;;11.05;9.15;;;;;;;20.00;100.00;101779.91;5052712;28;20028;-74
2023/09/17 01:58:09;;;;;;;11.10;9.82;;;;;;;20.10;100.00;101784.66;5053091;28;20043;-74
2023/09/17 02:00:35;;;;;;;12.25;9.73;;;;;;;20.27;100.00;101797.78;5052835;28;20551;-74
2023/09/17 02:03:02;;;;;;;12.57;9.68;;;;;;;19.98;100.00;101753.28;5052553;28;20037;-74
2023/09/17 02:05:28;;;;;;;13.05;10.20;;;;;;;19.76;100.00;101750.69;5070417;28;20028;-75
2023/09/17 02:07:53;;;;;;;12.77;10.05;;;;;;;19.79;100.00;101753.97;5069904;28;20456;-75
2023/09/17 02:10:20;;;;;;;12.00;9.63;;;;;;;19.86;100.00;101770.09;5052890;28;20463;-74
2023/09/17 02:12:46;;;;;;;13.02;9.98;;;;;;;20.04;100.00;101809.88;5052730;28;20032;-73
2023/09/17 02:15:12;;;;;;;13.55;9.50;;;;;;;20.12;100.00;101815.59;5070746;28;20107;-74
2023/09/17 02:17:38;;;;;;;11.63;9.65;;;;;;;19.70;100.00;101758.66;5052925;28;20380;-74
2023/09/17 02:20:10;;;;;;;11.45;9.90;;;;;;;20.10;100.00;101812.22;5052874;28;20121;-74
2023/09/17 02:22:36;;;;;;;14.48;10.70;;;;;;;19.45;100.00;101742.38;5052791;28;20044;-74
2023/09/17 02:25:01;;;;;;;13.55;10.13;;;;;;;19.90;100.00;101823.31;5053145;28;20024;-75
2023/09/17 02:27:27;;;;;;;11.32;10.23;;;;;;;20.03;100.00;101821.09;5074306;28;20040;-75
2023/09/17 02:29:52;;;;;;;13.63;10.10;;;;;;;20.09;100.00;101828.63;5073213;28;20123;-75
2023/09/17 02:32:19;;;;;;;12.25;10.52;;;;;;;19.67;100.00;101764.75;5073774;28;20051;-74
2023/09/17 02:34:45;;;;;;;12.73;10.10;;;;;;;20.19;100.00;101838.59;5073199;28;20508;-75
2023/09/17 02:37:10;;;;;;;15.80;10.38;;;;;;;20.16;100.00;101828.34;5092481;28;20040;-75
2023/09/17 02:39:35;;;;;;;11.20;10.00;;;;;;;20.22;100.00;101819.56;5076284;28;20035;-75
2023/09/17 02:42:01;;;;;;;12.13;10.40;;;;;;;20.19;100.00;101827.41;5075974;28;20413;-74
2023/09/17 02:44:26;;;;;;;15.38;10.20;;;;;;;19.85;100.00;101779.56;5076078;28;20028;-72
2023/09/17 02:46:52;;;;;;;12.02;9.93;;;;;;;20.21;100.00;101841.09;5075655;28;20494;-74
2023/09/17 02:49:21;;;;;;;12.82;9.85;;;;;;;19.79;100.00;101776.38;5093512;28;20028;-74
2023/09/17 02:51:47;;;;;;;14.40;10.32;;;;;;;20.09;100.00;101834.63;5076387;28;20071;-75
2023/09/17 02:54:12;;;;;;;11.43;10.20;;;;;;;19.79;100.00;101797.03;5094654;28;20056;-74
2023/09/17 02:56:38;;;;;;;13.82;10.77;;;;;;;20.05;100.00;101840.81;5093733;28;20065;-74
2023/09/17 02:59:03;;;;;;;12.05;9.98;;;;;;;19.49;100.00;101749.13;5093525;28;20059;-74
2023/09/17 03:01:28;;;;;;;13.95;10.60;;;;;;;20.07;100.00;101856.25;5075196;28;20024;-73
2023/09/17 03:03:54;;;;;;;12.27;10.43;;;;;;;20.01;100.00;101825.47;5072604;28;20032;-74
2023/09/17 03:06:19;;;;;;;11.15;10.05;;;;;;;19.82;100.00;101790.03;5035171;28;20035;-74
2023/09/17 03:08:47;;;;;;;11.63;10.23;;;;;;;20.18;100.00;101854.97;5072757;28;20062;-74
2023/09/17 03:11:17;;;;;;;12.75;11.05;;;;;;;20.13;100.00;101864.63;5057608;28;20028;-74
2023/09/17 03:13:46;;;;;;;13.68;10.68;;;;;;;19.82;100.00;101821.00;5073219;28;20024;-72
2023/09/17 03:16:15;;;;;;;13.45;10.70;;;;;;;19.79;100.00;101800.44;5053959;28;20028;-75
2023/09/17 03:18:44;;;;;;;13.02;10.93;;;;;;;20.12;100.00;101852.63;5073116;28;20028;-73
2023/09/17 03:21:09;;;;;;;13.90;11.35;;;;;;;19.66;100.00;101794.06;5088899;28;20123;-77
2023/09/17 03:23:36;;;;;;;13.23;10.45;;;;;;;19.95;100.00;101821.38;5058714;28;20025;-74
2023/09/17 03:26:03;;;;;;;12.52;10.40;;;;;;;19.91;100.00;101813.81;5069066;28;20093;-77
2023/09/17 03:28:29;;;;;;;12.50;10.63;;;;;;;20.03;100.00;101824.53;5073531;28;20469;-74
2023/09/17 03:30:55;;;;;;;14.27;11.00;;;;;;;20.15;100.00;101861.97;5072402;28;20035;-75
2023/09/17 03:33:22;;;;;;;12.73;11.20;;;;;;;20.08;100.00;101861.38;5093687;28;20044;-75
2023/09/17 03:35:47;;;;;;;12.07;10.55;;;;;;;19.93;100.00;101806.88;5092879;28;20032;-70
2023/09/17 03:38:12;;;;;;;14.48;10.48;;;;;;;19.84;100.00;101808.03;5092051;28;20024;-73
2023/09/17 03:40:39;;;;;;;11.60;10.40;;;;;;;19.93;100.00;101845.59;5092666;28;20028;-73
2023/09/17 03:43:05;;;;;;;14.05;10.55;;;;;;;20.03;100.00;101824.53;5071181;28;20032;-73
2023/09/17 03:45:31;;;;;;;11.85;10.32;;;;;;;20.31;100.00;101876.03;5070635;28;20028;-72
2023/09/17 03:47:56;;;;;;;13.15;11.63;;;;;;;19.66;100.00;101809.56;5067586;28;20020;-73
2023/09/17 03:50:23;;;;;;;13.43;12.02;;;;;;;19.72;100.00;101835.16;5071962;28;20037;-74
2023/09/17 03:52:52;;;;;;;14.43;11.27;;;;;;;19.68;100.00;101810.34;5070416;28;20468;-73
2023/09/17 03:55:18;;;;;;;13.65;11.35;;;;;;;19.76;100.00;101810.91;5072457;28;20039;-72
2023/09/17 03:57:44;;;;;;;16.63;11.65;;;;;;;20.02;100.00;101865.91;5070770;28;20534;-73
2023/09/17 04:00:11;;;;;;;13.75;11.57;;;;;;;19.97;100.00;101855.75;5070656;28;20075;-72
2023/09/17 04:02:37;;;;;;;12.80;11.45;;;;;;;20.15;100.00;101877.47;5070385;28;20406;-74
2023/09/17 04:05:09;;;;;;;15.63;11.57;;;;;;;20.12;100.00;101870.69;5071119;28;20028;-72
2023/09/17 04:07:34;;;;;;;16.08;11.88;;;;;;;20.01;100.00;101867.66;5071686;28;20020;-72
2023/09/17 04:10:00;;;;;;;14.77;11.68;;;;;;;19.65;100.00;101813.00;5072124;28;20039;-72
2023/09/17 04:12:25;;;;;;;13.38;12.02;;;;;;;19.86;100.00;101848.41;5070276;28;20473;-72
2023/09/17 04:14:51;;;;;;;14.13;11.57;;;;;;;19.58;100.00;101797.81;5070889;28;20036;-73
2023/09/17 04:17:16;;;;;;;14.77;12.50;;;;;;;19.93;100.00;101843.84;5070137;28;20119;-73
2023/09/17 04:19:41;;;;;;;18.08;13.07;;;;;;;19.72;100.00;101827.41;5071629;28;20036;-75
2023/09/17 04:22:07;;;;;;;19.17;12.70;;;;;;;19.28;100.00;101719.72;5071595;28;20136;-75
2023/09/17 04:24:32;;;;;;;16.40;12.95;;;;;;;19.89;100.00;101817.28;5092364;28;20520;-74
2023/09/17 04:26:58;;;;;;;14.10;11.23;;;;;;;19.91;100.00;101744.94;5092179;28;20057;-75
2023/09/17 04:29:23;;;;;;;13.95;11.32;;;;;;;20.61;100.00;101754.22;5074218;28;20062;-71
2023/09/17 04:31:51;;;;;;;15.73;13.55;;;;;;;20.15;100.00;101813.72;5073801;28;20127;-72
2023/09/17 04:34:18;;;;;;;15.57;13.68;;;;;;;19.73;100.00;101758.53;5051656;28;20025;-74
2023/09/17 04:36:43;;;;;;;20.58;14.32;;;;;;;20.01;100.00;101808.25;5051801;28;20025;-72
2023/09/17 04:39:10;;;;;;;19.52;15.32;;;;;;;19.94;100.00;101814.53;5033240;28;20059;-73
2023/09/17 04:41:36;;;;;;;16.52;14.73;;;;;;;20.09;100.00;101803.63;5033413;28;20033;-72
2023/09/17 04:44:06;;;;;;;19.48;14.40;;;;;;;20.01;100.00;101777.25;5051156;28;20565;-73
2023/09/17 04:46:31;;;;;;;16.75;12.15;;;;;;;20.73;100.00;101817.50;5071502;28;20510;-70
2023/09/17 04:48:57;;;;;;;17.77;13.52;;;;;;;21.17;100.00;101816.56;5070460;28;20025;-72
2023/09/17 04:51:22;;;;;;;16.52;12.68;;;;;;;20.52;100.00;101831.28;5059205;28;20028;-77
2023/09/17 04:53:48;;;;;;;14.68;12.45;;;;;;;20.43;100.00;101854.91;5066878;28;20064;-72
2023/09/17 04:56:13;;;;;;;13.20;11.50;;;;;;;20.53;100.00;101872.59;5069043;28;20033;-73
2023/09/17 04:58:39;;;;;;;13.80;12.40;;;;;;;20.29;100.00;101878.69;5051775;28;20033;-73
2023/09/17 05:01:06;;;;;;;13.95;12.07;;;;;;;20.28;100.00;101835.63;5057616;28;20037;-72
2023/09/17 05:03:31;;;;;;;17.50;11.93;;;;;;;20.31;100.00;101857.94;5053334;28;20252;-73
2023/09/17 05:05:57;;;;;;;14.68;11.82;;;;;;;20.51;100.00;101901.97;5048469;28;20487;-73
2023/09/17 05:08:22;;;;;;;15.07;11.63;;;;;;;20.58;100.00;101917.19;5050621;28;20032;-73
2023/09/17 05:10:48;;;;;;;13.32;11.90;;;;;;;20.73;100.00;101903.69;5050110;28;20033;-73
2023/09/17 05:13:14;;;;;;;13.70;10.95;;;;;;;21.05;100.00;101928.31;5050950;28;20086;-73
2023/09/17 05:15:39;;;;;;;12.15;10.65;;;;;;;20.85;100.00;101875.63;5050022;28;20196;-72
2023/09/17 05:18:09;;;;;;;12.88;10.18;;;;;;;21.24;100.00;101941.31;5050133;28;20396;-72
2023/09/17 05:20:35;;;;;;;13.98;10.50;;;;;;;21.22;100.00;101945.72;5049526;28;20200;-71
2023/09/17 05:23:03;;;;;;;13.35;10.35;;;;;;;21.15;100.00;101949.47;5050880;28;20033;-73
2023/09/17 05:25:28;;;;;;;13.95;10.52;;;;;;;21.18;100.00;101933.81;5050981;28;20036;-74
2023/09/17 05:27:54;;;;;;;10.90;9.82;;;;;;;21.85;100.00;101968.97;5049774;28;20029;-72
2023/09/17 05:30:19;;;;;;;12.98;9.88;;;;;;;21.38;100.00;101895.88;5051927;28;20025;-72
2023/09/17 05:32:45;;;;;;;14.38;10.82;;;;;;;21.79;100.00;101938.13;5050752;28;20080;-72
2023/09/17 05:35:10;;;;;;;15.63;11.38;;;;;;;22.13;100.00;101953.94;5050682;28;20044;-73
2023/09/17 05:37:35;;;;;;;13.20;10.30;;;;;;;22.02;100.00;101919.88;5049824;28;20029;-70
2023/09/17 05:40:01;;;;;;;12.05;9.95;;;;;;;22.58;100.00;101925.09;5050839;28;20119;-71
2023/09/17 05:42:26;;;;;;;11.18;9.90;;;;;;;22.75;100.00;101926.91;5050922;28;20029;-73
2023/09/17 05:44:52;;;;;;;13.15;10.00;;;;;;;22.49;100.00;101876.22;5049738;28;20029;-73
2023/09/17 05:47:18;;;;;;;10.68;9.50;;;;;;;23.29;100.00;101924.25;5050878;28;20425;-73
2023/09/17 05:49:43;;;;;;;14.60;10.32;;;;;;;23.05;100.00;101920.25;5050293;28;20036;-73
2023/09/17 05:52:09;;;;;;;15.63;9.90;;;;;;;23.79;100.00;101937.34;5050880;28;20037;-74
2023/09/17 05:54:34;;;;;;;11.40;9.52;;;;;;;23.76;100.00;101921.88;5050761;28;20060;-73
2023/09/17 05:57:00;;;;;;;10.68;9.07;;;;;;;23.89;100.00;101905.56;5050712;28;20407;-73
2023/09/17 05:59:25;;;;;;;12.20;10.13;;;;;;;23.69;100.00;101897.97;5050493;28;20483;-72
2023/09/17 06:01:51;;;;;;;12.82;8.00;;;;;;;23.92;100.00;101873.38;5053302;28;20029;-72
2023/09/17 06:04:16;;;;;;;9.82;8.82;;;;;;;24.29;100.00;101870.53;5054367;28;20025;-74
2023/09/17 06:06:42;;;;;;;18.70;8.38;;;;;;;24.07;100.00;101851.78;5054405;28;20037;-73
2023/09/17 06:09:08;;;;;;;11.60;7.90;;;;;;;24.31;100.00;101827.06;5054451;28;20025;-74
2023/09/17 06:11:34;;;;;;;11.38;7.95;;;;;;;24.14;100.00;101800.31;5053831;28;20136;-73
2023/09/17 06:14:00;;;;;;;12.45;8.20;;;;;;;24.03;100.00;101715.09;5053421;28;20024;-74
2023/09/17 06:16:25;;;;;;;11.00;7.72;;;;;;;25.17;100.00;101738.78;5054064;28;20491;-74
2023/09/17 06:18:51;;;;;;;11.07;7.85;;;;;;;24.63;100.00;101643.13;5069501;28;20094;-73
2023/09/17 06:21:17;;;;;;;11.82;7.13;;;;;;;25.09;100.00;101668.09;5054018;28;20029;-74
2023/09/17 06:23:42;;;;;;;8.88;7.22;;;;;;;24.96;100.00;101635.09;5069433;28;20121;-74
2023/09/17 06:26:08;;;;;;;8.48;7.00;;;;;;;23.90;100.00;101529.56;5053368;28;20511;-74
2023/09/17 06:28:34;;;;;;;8.43;7.03;;;;;;;24.97;100.00;101616.75;5053139;28;20025;-74
2023/09/17 06:31:01;;;;;;;9.30;7.10;;;;;;;25.02;100.00;101614.69;5052862;28;20633;-72
2023/09/17 06:33:27;;;;;;;10.50;7.13;;;;;;;24.53;100.00;101566.53;5054022;28;20045;-74
2023/09/17 06:35:53;;;;;;;8.00;7.22;;;;;;;24.67;100.00;101609.03;5052970;28;20514;-74
2023/09/17 06:38:18;;;;;;;9.15;8.00;;;;;;;24.00;100.00;101556.72;5053821;28;20033;-72
2023/09/17 06:40:43;;;;;;;10.95;7.85;;;;;;;24.83;100.00;101603.75;5053899;28;20025;-73
2023/09/17 06:43:09;;;;;;;8.48;7.40;;;;;;;24.89;100.00;101609.44;5053766;28;20033;-73
2023/09/17 06:45:34;;;;;;;13.85;7.97;;;;;;;24.49;100.00;101547.69;5052108;28;20047;-73
2023/09/17 06:48:00;;;;;;;8.68;7.10;;;;;;;24.53;100.00;101486.75;5052132;28;20411;-74
2023/09/17 06:50:25;;;;;;;10.23;7.60;;;;;;;24.71;100.00;101489.97;5053601;28;20476;-74
2023/09/17 06:52:51;;;;;;;8.75;7.85;;;;;;;25.56;100.00;101572.19;5053461;28;20120;-74
2023/09/17 06:55:16;;;;;;;11.48;8.15;;;;;;;25.01;100.00;101505.47;5052528;28;20037;-74
2023/09/17 06:57:41;;;;;;;10.27;7.60;;;;;;;25.37;100.00;101547.38;5053747;28;20449;-72
2023/09/17 07:00:07;;;;;;;8.15;6.95;;;;;;;25.14;100.00;101488.09;5053368;28;20029;-75
2023/09/17 07:02:33;;;;;;;9.25;7.47;;;;;;;24.99;100.00;101536.81;5052819;28;20043;-74
2023/09/17 07:05:01;;;;;;;11.65;8.32;;;;;;;24.47;100.00;101468.91;5053248;28;20483;-74
2023/09/17 07:07:26;;;;;;;9.32;7.40;;;;;;;25.32;100.00;101529.44;5053345;28;20025;-73
2023/09/17 07:09:52;;;;;;;9.90;7.10;;;;;;;25.38;100.00;101515.19;5053286;28;20036;-73
2023/09/17 07:12:18;;;;;;;11.18;7.15;;;;;;;25.88;100.00;101509.28;5052096;28;20031;-72
2023/09/17 07:14:43;;;;;;;10.10;7.53;;;;;;;25.34;100.00;101483.28;5052136;28;20457;-73
2023/09/17 07:17:09;;;;;;;8.52;7.15;;;;;;;25.69;100.00;101479.22;5053123;28;20029;-76
2023/09/17 07:19:35;;;;;;;7.85;6.95;;;;;;;24.54;100.00;101474.59;5053452;28;20464;-73
2023/09/17 07:22:01;;;;;;;11.73;8.05;;;;;;;25.68;100.00;101474.97;5052835;28;20558;-73
2023/09/17 07:24:26;;;;;;;8.40;7.13;;;;;;;25.84;100.00;101460.88;5052617;28;20079;-73
2023/09/17 07:26:51;;;;;;;8.13;7.07;;;;;;;25.99;100.00;101454.66;5053371;28;20036;-73
2023/09/17 07:29:17;;;;;;;8.15;7.05;;;;;;;24.96;100.00;101379.97;5053012;28;20117;-73
2023/09/17 07:31:46;;;;;;;9.93;7.50;;;;;;;25.91;100.00;101433.47;5053118;28;20037;-75
2023/09/17 07:34:12;;;;;;;9.95;7.80;;;;;;;25.58;100.00;101371.44;5052085;28;20476;-74
2023/09/17 07:36:37;;;;;;;8.93;6.95;;;;;;;25.11;100.00;101304.28;5052773;28;20040;-74
2023/09/17 07:39:03;;;;;;;12.57;7.72;;;;;;;25.66;100.00;101400.41;5052558;28;20043;-75
2023/09/17 07:41:29;;;;;;;11.95;7.10;;;;;;;24.96;100.00;101330.53;5052481;28;20028;-74
2023/09/17 07:43:55;;;;;;;7.78;6.68;;;;;;;25.52;100.00;101396.16;5039237;28;20036;-73
2023/09/17 07:46:20;;;;;;;8.05;7.22;;;;;;;24.39;100.00;101333.31;5052187;28;20032;-73
2023/09/17 07:48:47;;;;;;;7.65;6.85;;;;;;;25.13;100.00;101377.94;5034400;28;20029;-72
2023/09/17 07:51:13;;;;;;;9.95;7.55;;;;;;;25.38;100.00;101325.88;5052977;28;20410;-73
2023/09/17 07:53:38;;;;;;;9.68;7.45;;;;;;;25.90;100.00;101369.22;5050862;28;20078;-73
2023/09/17 07:56:03;;;;;;;8.52;7.13;;;;;;;26.45;100.00;101351.38;5052196;28;20036;-72
2023/09/17 07:58:29;;;;;;;9.63;7.85;;;;;;;25.01;100.00;101323.22;5034288;28;20029;-73
2023/09/17 08:00:55;;;;;;;7.88;7.07;;;;;;;25.43;100.00;101362.88;5052029;28;20060;-73
2023/09/17 08:03:22;;;;;;;9.32;7.47;;;;;;;24.43;100.00;101326.97;5051297;28;20060;-72
2023/09/17 08:05:49;;;;;;;8.57;7.68;;;;;;;24.81;100.00;101366.19;5052085;28;20037;-73
2023/09/17 08:08:15;;;;;;;11.25;8.00;;;;;;;25.73;100.00;101352.16;5050836;28;20080;-73
2023/09/17 08:10:41;;;;;;;9.52;7.50;;;;;;;26.55;100.00;101352.38;5051087;28;20538;-73
2023/09/17 08:13:07;;;;;;;9.20;7.60;;;;;;;26.17;100.00;101364.72;5052064;28;20029;-72
2023/09/17 08:15:35;;;;;;;12.35;7.32;;;;;;;26.74;100.00;101409.34;5052230;28;20556;-73
2023/09/17 08:18:01;;;;;;;9.52;7.10;;;;;;;27.14;100.00;101479.44;5060158;28;20044;-73
2023/09/17 08:20:26;;;;;;;10.10;7.50;;;;;;;27.11;100.00;101643.41;5056765;28;20025;-75
2023/09/17 08:22:52;;;;;;;9.43;7.22;;;;;;;26.13;100.00;101926.63;5058002;28;20040;-71
2023/09/17 08:25:18;;;;;;;8.00;7.20;;;;;;;26.96;100.00;102201.66;5052722;28;20028;-72
2023/09/17 08:27:45;;;;;;;10.80;7.35;;;;;;;27.04;100.00;102702.84;5050128;28;20066;-72
2023/09/17 08:30:13;;;;;;;10.00;6.70;;;;;;;27.25;100.00;103188.72;5052087;28;20033;-72
2023/09/17 08:32:44;;;;;;;9.52;6.95;;;;;;;27.21;100.00;103510.44;5051768;28;20044;-73
2023/09/17 08:35:15;;;;;;;7.57;6.78;;;;;;;27.22;100.00;104506.53;5050138;28;20091;-72
2023/09/17 08:37:42;;;;;;;;;;;;;;;26.66;100.00;104509.66;5050842;28;20021;-72
2023/09/17 08:40:13;;;;;;;10.23;7.15;;;;;;;27.14;100.00;104526.78;5051852;28;19917;-73
2023/09/17 08:42:41;;;;;;;9.10;6.80;;;;;;;27.11;100.00;104536.47;5050429;28;20035;-73
2023/09/17 08:45:08;;;;;;;10.93;6.85;;;;;;;25.77;100.00;104408.00;5051552;28;20025;-72
2023/09/17 08:47:33;;;;;;;9.15;6.78;;;;;;;27.08;100.00;104474.66;5050405;28;20111;-73
2023/09/17 08:49:59;;;;;;;7.35;6.55;;;;;;;27.41;100.00;104654.28;5049815;28;20124;-73
2023/09/17 08:52:26;;;;;;;8.82;6.50;;;;;;;26.54;100.00;104390.59;5052195;28;20041;-73
2023/09/17 08:54:53;;;;;;;8.77;6.35;;;;;;;27.36;100.00;104229.84;5051072;28;20037;-73
2023/09/17 08:57:22;;;;;;;7.40;6.47;;;;;;;27.69;100.00;104591.66;5050035;28;20048;-73
2023/09/17 08:59:56;;;;;;;7.63;6.50;;;;;;;27.07;100.00;104328.31;5051435;28;20037;-74
2023/09/17 09:02:29;;;;;;;8.65;6.50;;;;;;;27.35;100.00;104330.16;5051328;28;20096;-73
2023/09/17 09:04:55;;;;;;;9.27;6.80;;;;;;;27.20;100.00;104136.19;5051234;28;20035;-73
2023/09/17 09:07:22;;;;;;;9.27;7.10;;;;;;;27.52;100.00;104136.03;5049898;28;20029;-72
2023/09/17 09:09:50;;;;;;;7.35;6.65;;;;;;;28.12;100.00;104057.22;5050209;28;20040;-75
2023/09/17 09:12:16;;;;;;;7.68;6.32;;;;;;;27.36;100.00;103793.09;5051195;28;20067;-74
2023/09/17 09:14:44;;;;;;;9.63;7.03;;;;;;;27.82;100.00;103752.09;5051203;28;20551;-73
2023/09/17 09:17:11;;;;;;;10.02;6.78;;;;;;;27.97;100.00;103694.78;5050169;28;20054;-74
2023/09/17 09:19:37;;;;;;;8.38;7.07;;;;;;;27.57;100.00;103417.41;5051290;28;20024;-74
2023/09/17 09:22:02;;;;;;;8.85;7.07;;;;;;;27.71;100.00;103013.91;5050918;28;20106;-73
2023/09/17 09:24:44;;;;;;;9.65;6.90;;;;;;;27.45;100.00;102890.56;5049140;28;20079;-73
2023/09/17 09:27:10;;;;;;;9.63;6.90;;;;;;;27.37;100.00;102890.09;5051246;28;20033;-74
2023/09/17 09:29:36;;;;;;;8.35;7.45;;;;;;;26.91;100.00;102864.59;5050946;28;20384;-73
2023/09/17 09:32:02;;;;;;;8.85;7.00;;;;;;;27.09;100.00;102821.88;5049735;28;20049;-73
2023/09/17 09:34:28;;;;;;;8.32;7.45;;;;;;;26.95;100.00;102803.44;5049776;28;20037;-73
2023/09/17 09:36:54;;;;;;;8.18;7.38;;;;;;;26.67;100.00;102839.66;5053970;28;20530;-73
2023/09/17 09:39:20;;;;;;;9.13;7.18;;;;;;;27.66;100.00;102844.13;5054756;28;20560;-74
2023/09/17 09:41:47;;;;;;;9.43;7.30;;;;;;;27.77;100.00;102804.31;5055024;28;20040;-73
2023/09/17 09:44:12;;;;;;;8.65;7.72;;;;;;;26.93;100.00;102857.53;5054698;28;20029;-75
2023/09/17 09:46:38;;;;;;;9.75;7.45;;;;;;;27.63;100.00;102853.91;5054132;28;20708;-76
2023/09/17 09:49:04;;;;;;;9.43;7.63;;;;;;;28.02;100.00;102836.94;5054719;28;20040;-75
2023/09/17 09:51:31;;;;;;;8.57;7.38;;;;;;;27.26;100.00;102657.16;5054866;28;20483;-73
2023/09/17 09:53:57;;;;;;;10.48;7.25;;;;;;;27.89;100.00;102714.69;5053529;28;20036;-73
2023/09/17 09:56:27;;;;;;;10.05;7.80;;;;;;;27.76;100.00;102656.97;5053772;28;20086;-73
2023/09/17 09:58:55;;;;;;;8.30;7.35;;;;;;;27.86;100.00;102660.75;5054968;28;20449;-73
2023/09/17 10:01:20;;;;;;;9.25;7.93;;;;;;;27.55;100.00;102683.50;5054287;28;20500;-72
2023/09/17 10:03:47;;;;;;;8.85;7.68;;;;;;;28.06;100.00;102717.22;5053792;28;20032;-74
2023/09/17 10:06:14;;;;;;;8.20;7.40;;;;;;;27.16;100.00;102671.66;5054502;28;20556;-73
2023/09/17 10:08:40;;;;;;;10.27;8.15;;;;;;;28.22;100.00;102786.94;5052901;28;20499;-72
2023/09/17 10:11:08;;;;;;;9.00;8.05;;;;;;;27.86;100.00;102704.38;5054136;28;20036;-74
2023/09/17 10:13:34;;;;;;;11.30;7.95;;;;;;;28.00;100.00;102632.06;5055885;28;20032;-73
2023/09/17 10:16:02;;;;;;;10.57;8.30;;;;;;;28.49;100.00;102553.19;5053145;28;20403;-73
2023/09/17 10:18:30;;;;;;;12.55;8.13;;;;;;;28.24;100.00;102499.72;5054395;28;20029;-72
2023/09/17 10:20:56;;;;;;;8.38;6.82;;;;;;;28.84;100.00;102400.72;5053889;28;20124;-73
2023/09/17 10:23:23;;;;;;;10.02;7.40;;;;;;;28.33;100.00;102395.38;5053006;28;20502;-74
2023/09/17 10:25:50;;;;;;;10.02;7.40;;;;;;;28.72;100.00;102361.41;5054048;28;20051;-73
2023/09/17 10:28:17;;;;;;;9.98;7.25;;;;;;;28.76;100.00;102306.06;5053935;28;20506;-73
2023/09/17 10:30:44;;;;;;;9.18;7.38;;;;;;;28.88;100.00;102257.25;5053033;28;20103;-73
2023/09/17 10:33:11;;;;;;;11.68;8.10;;;;;;;28.19;100.00;102184.22;5053885;28;20525;-74
2023/09/17 10:35:38;;;;;;;9.73;7.85;;;;;;;28.04;100.00;102255.88;5052419;28;20041;-74
2023/09/17 10:38:05;;;;;;;9.35;8.13;;;;;;;27.94;100.00;102226.84;5052151;28;20027;-72
2023/09/17 10:40:31;;;;;;;10.02;7.50;;;;;;;28.19;100.00;102296.75;5053783;28;20095;-72
2023/09/17 10:43:01;;;;;;;12.88;7.63;;;;;;;28.15;100.00;102297.91;5053676;28;20025;-73
2023/09/17 10:45:30;;;;;;;10.65;7.93;;;;;;;27.99;100.00;102312.94;5035972;28;20033;-73
2023/09/17 10:47:58;;;;;;;12.82;7.53;;;;;;;28.02;100.00;102213.28;5052339;28;20124;-73
2023/09/17 10:50:27;;;;;;;11.23;7.68;;;;;;;29.09;100.00;102205.97;5053919;28;20419;-73
2023/09/17 10:52:53;;;;;;;8.40;7.55;;;;;;;28.77;100.00;102137.47;5053653;28;20032;-73
2023/09/17 10:55:21;;;;;;;8.93;7.63;;;;;;;28.52;100.00;102113.06;5053565;28;20584;-73
2023/09/17 10:58:23;;;;;;;13.00;8.05;;;;;;;29.75;100.00;102098.06;5052504;28;20029;-73
2023/09/17 11:00:51;;;;;;;9.15;7.28;;;;;;;29.11;100.00;102018.84;5039892;28;20072;-73
2023/09/17 11:03:19;;;;;;;10.52;7.28;;;;;;;28.12;100.00;102042.50;5051623;28;20037;-72
2023/09/17 11:05:46;;;;;;;10.70;7.30;;;;;;;28.80;100.00;102001.00;5053309;28;20036;-73